Time;durP1;ratioP1;P1;durP2;ratioP2;P2;SDS_P1;SDS_P2;PMS_P1;PMS_P2;Temp;Humidity;BMP_temperature;BMP_pressure;BME280_temperature;BME280_humidity;BME280_pressure;Samples;Min_cycle;Max_cycle;Signal;HPM_P1;HPM_P2
2022/08/20 00:02:35;;;;;;;;;3.33;3.33;;;;;19.10;62.78;101561.13;6235567;22;47236;-85
2022/08/20 00:05:41;;;;;;;;;3.67;3.67;;;;;19.06;63.30;101574.59;6273997;22;45430;-82
2022/08/20 00:08:20;;;;;;;;;;;;;;;;;;;;;
2022/08/20 00:10:50;;;;;;;;;4.00;4.00;;;;;19.02;63.18;101573.81;6278270;22;70976;-82
2022/08/20 00:13:37;;;;;;;;;5.67;4.67;;;;;18.87;63.20;101545.72;6277075;22;47973;-82
2022/08/20 00:16:06;;;;;;;;;6.00;3.00;;;;;18.93;62.87;101555.38;6276286;22;45510;-83
2022/08/20 00:18:45;;;;;;;;;;;;;;;;;;;;;
2022/08/20 00:21:26;;;;;;;;;;;;;;;;;;;;;
2022/08/20 00:23:55;;;;;;;;;7.00;5.00;;;;;18.75;63.04;101530.03;6275522;22;73982;-82
2022/08/20 00:26:30;;;;;;;;;5.33;4.67;;;;;18.83;62.87;101549.38;6276718;22;45547;-83
2022/08/20 00:29:06;;;;;;;;;4.00;3.00;;;;;18.76;63.20;101542.44;6277017;22;45431;-82
2022/08/20 00:31:32;;;;;;;;;3.00;3.00;;;;;18.67;63.15;101531.97;6277303;22;46106;-82
2022/08/20 00:34:00;;;;;;;;;5.00;5.00;;;;;18.79;63.18;101563.72;6251930;22;47632;-82
2022/08/20 00:36:26;;;;;;;;;4.00;4.00;;;;;18.57;63.33;101530.44;6277831;22;45705;-82
2022/08/20 00:39:06;;;;;;;;;;;;;;;;;;;;;
2022/08/20 00:41:37;;;;;;;;;5.00;4.00;;;;;18.73;63.52;101569.16;6278416;22;72883;-83
2022/08/20 00:44:14;;;;;;;;;6.00;3.67;;;;;18.64;63.09;101556.06;6279387;22;45356;-82
2022/08/20 00:46:44;;;;;;;;;6.33;4.33;;;;;18.62;63.10;101555.22;6279338;22;45221;-82
2022/08/20 00:49:17;;;;;;;;;3.00;3.00;;;;;18.58;63.59;101549.09;6279459;22;45375;-82
2022/08/20 00:51:57;;;;;;;;;;;;;;;;;;;;;
2022/08/20 00:54:38;;;;;;;;;;;;;;;;;;;;;
2022/08/20 00:57:18;;;;;;;;;5.33;4.67;;;;;18.43;63.80;101536.09;6278248;22;72370;-82
2022/08/20 00:59:47;;;;;;;;;5.00;4.33;;;;;18.40;63.81;101537.06;6277603;22;45188;-82
2022/08/20 01:02:19;;;;;;;;;4.00;4.00;;;;;18.32;64.32;101523.03;6257151;22;45476;-82
2022/08/20 01:04:53;;;;;;;;;3.67;3.67;;;;;18.44;64.01;101553.84;6220780;22;47423;-82
2022/08/20 01:07:21;;;;;;;;;3.67;3.67;;;;;18.46;64.69;101562.69;6248372;22;45233;-82
2022/08/20 01:09:49;;;;;;;;;4.00;4.00;;;;;18.37;64.24;101558.47;6220933;22;45398;-83
2022/08/20 01:12:26;;;;;;;;;5.00;4.00;;;;;18.25;64.08;101532.06;6245979;22;45356;-83
2022/08/20 01:15:13;;;;;;;;;4.67;4.00;;;;;18.22;64.48;101526.81;6220647;22;46974;-82
2022/08/20 01:17:51;;;;;;;;;4.67;4.00;;;;;18.25;64.17;101534.72;6220725;22;45217;-82
2022/08/20 01:20:24;;;;;;;;;3.33;3.33;;;;;18.22;64.44;101538.34;6246976;22;45378;-83
2022/08/20 01:23:28;;;;;;;;;5.00;5.00;;;;;18.27;64.50;101552.44;6248368;22;45482;-82
2022/08/20 01:26:15;;;;;;;;;5.33;4.00;;;;;18.29;64.64;101555.09;6221466;22;47565;-83
2022/08/20 01:28:59;;;;;;;;;4.67;3.33;;;;;18.26;64.23;101556.03;6221571;22;45416;-83
2022/08/20 01:31:29;;;;;;;;;4.67;3.00;;;;;18.05;64.38;101516.53;6249768;22;45112;-82
2022/08/20 01:34:11;;;;;;;;;;;;;;;;;;;;;
2022/08/20 01:36:51;;;;;;;;;4.00;4.00;;;;;18.17;64.09;101553.56;6248245;22;74995;-82
2022/08/20 01:39:37;;;;;;;;;2.67;2.67;;;;;18.16;64.33;101557.16;6221631;22;45837;-83
2022/08/20 01:42:27;;;;;;;;;4.00;3.33;;;;;18.13;64.66;101559.88;6249869;22;45189;-83
2022/08/20 01:45:33;;;;;;;;;;;;;;;;;;;;;
2022/08/20 01:48:14;;;;;;;;;;;;;;;;;;;;;
2022/08/20 01:50:51;;;;;;;;;5.00;5.00;;;;;17.81;64.48;101539.25;6248623;22;72603;-83
2022/08/20 01:53:27;;;;;;;;;8.00;6.00;;;;;17.89;64.85;101560.41;6222112;22;45391;-83
2022/08/20 01:55:55;;;;;;;;;5.67;5.33;;;;;17.81;64.24;101550.78;6246806;22;45418;-82
2022/08/20 01:58:55;;;;;;;;;;;;;;;;;;;;;
2022/08/20 02:01:41;;;;;;;;;5.00;3.00;;;;;17.64;64.88;101543.13;6246534;22;72824;-83
2022/08/20 02:04:19;;;;;;;;;;;;;;;;;;;;;
2022/08/20 02:07:14;;;;;;;;;4.00;3.00;;;;;17.79;64.58;101576.56;6247390;22;71312;-83
2022/08/20 02:09:49;;;;;;;;;4.33;2.67;;;;;17.73;64.74;101576.69;6201932;22;47966;-83
2022/08/20 02:12:44;;;;;;;;;4.00;4.00;;;;;17.64;64.89;101564.44;6246203;22;45311;-83
2022/08/20 02:15:57;;;;;;;;;;;;;;;;;;;;;
2022/08/20 02:18:32;;;;;;;;;;;;;;;;;;;;;
2022/08/20 02:21:04;;;;;;;;;4.00;4.00;;;;;17.57;64.94;101573.44;6246729;22;75180;-83
2022/08/20 02:23:32;;;;;;;;;5.33;3.33;;;;;17.51;64.72;101568.25;6220311;22;45204;-83
2022/08/20 02:26:06;;;;;;;;;4.33;4.33;;;;;17.55;64.96;101580.56;6220061;22;45319;-83
2022/08/20 02:28:32;;;;;;;;;2.00;2.00;;;;;17.61;64.93;101590.22;6247534;22;45341;-83
2022/08/20 02:31:01;;;;;;;;;4.00;3.67;;;;;17.55;65.25;101588.56;6245763;22;47855;-82
2022/08/20 02:33:34;;;;;;;;;5.33;3.67;;;;;17.47;64.82;101579.84;6220861;22;45392;-83
2022/08/20 02:36:25;;;;;;;;;3.00;3.00;;;;;17.36;64.86;101564.06;6220649;22;45362;-83
2022/08/20 02:38:54;;;;;;;;;7.00;5.67;;;;;17.32;65.19;101556.16;6220689;22;45450;-82
2022/08/20 02:41:20;;;;;;;;;5.33;3.67;;;;;17.31;65.09;101554.41;6247779;22;46285;-83
2022/08/20 02:43:50;;;;;;;;;5.67;4.00;;;;;17.29;65.58;101558.88;6219956;22;45253;-82
2022/08/20 02:46:34;;;;;;;;;4.00;3.00;;;;;17.28;65.77;101558.00;6220534;22;45399;-82
2022/08/20 02:49:02;;;;;;;;;4.33;4.33;;;;;17.41;65.45;101583.50;6221243;22;45553;-83
2022/08/20 02:51:37;;;;;;;;;;;;;;;;;;;;;
2022/08/20 02:54:03;;;;;;;;;5.33;4.67;;;;;17.26;65.63;101575.78;6246919;22;72095;-83
2022/08/20 02:56:29;;;;;;;;;5.33;4.00;;;;;17.20;65.86;101575.91;6248338;22;45473;-83
2022/08/20 02:58:54;;;;;;;;;4.67;4.00;;;;;17.04;65.82;101559.31;6220573;22;45443;-82
2022/08/20 03:01:22;;;;;;;;;5.00;5.00;;;;;17.12;66.20;101576.03;6257695;22;46484;-83
2022/08/20 03:03:59;;;;;;;;;5.00;3.00;;;;;17.17;66.23;101598.13;6276970;22;45206;-83
2022/08/20 03:06:36;;;;;;;;;;;;;;;;;;;;;
2022/08/20 03:09:07;;;;;;;;;4.00;3.33;;;;;16.98;66.24;101565.63;6277786;22;71854;-83
2022/08/20 03:11:51;;;;;;;;;3.00;3.00;;;;;16.97;66.70;101563.00;6276380;22;47484;-83
2022/08/20 03:14:27;;;;;;;;;3.33;3.00;;;;;17.14;66.77;101598.19;6250608;22;45150;-83
2022/08/20 03:16:52;;;;;;;;;2.67;2.00;;;;;16.93;66.88;101553.31;6276883;22;45194;-82
2022/08/20 03:19:20;;;;;;;;;4.33;4.00;;;;;17.01;67.09;101574.47;6279007;22;45101;-82
2022/08/20 03:21:46;;;;;;;;;3.00;2.67;;;;;16.94;66.74;101563.91;6276829;22;46961;-83
2022/08/20 03:24:12;;;;;;;;;4.33;3.33;;;;;16.95;66.84;101556.84;6276618;22;45370;-83
2022/08/20 03:26:37;;;;;;;;;2.00;2.00;;;;;16.98;67.11;101573.63;6277041;22;45365;-83
2022/08/20 03:29:12;;;;;;;;;4.67;3.00;;;;;16.87;66.98;101556.97;6278781;22;45402;-83
2022/08/20 03:31:38;;;;;;;;;5.67;4.67;;;;;16.86;67.43;101565.81;6276547;22;47875;-83
2022/08/20 03:34:06;;;;;;;;;4.00;3.00;;;;;16.96;67.39;101596.69;6251187;22;45387;-83
2022/08/20 03:36:31;;;;;;;;;4.00;4.00;;;;;16.80;67.20;101571.25;6250911;22;45235;-83
2022/08/20 03:38:59;;;;;;;;;6.33;4.00;;;;;16.81;67.43;101572.13;6278610;22;45177;-83
2022/08/20 03:41:30;;;;;;;;;5.33;5.00;;;;;16.79;67.37;101573.97;6278512;22;46643;-82
2022/08/20 03:43:58;;;;;;;;;4.00;3.33;;;;;16.67;67.48;101559.03;6276174;22;45239;-82
2022/08/20 03:46:26;;;;;;;;;4.33;3.00;;;;;16.59;67.66;101548.50;6276582;22;45236;-83
2022/08/20 03:48:54;;;;;;;;;5.33;5.33;;;;;16.62;67.54;101566.19;6250916;22;45359;-83
2022/08/20 03:51:25;;;;;;;;;6.00;4.67;;;;;16.61;67.47;101577.75;6276485;22;47370;-82
2022/08/20 03:54:00;;;;;;;;;5.33;4.33;;;;;16.63;67.63;101583.91;6249835;22;45423;-82
2022/08/20 03:56:27;;;;;;;;;4.33;4.00;;;;;16.58;67.68;101570.69;6250545;22;45440;-81
2022/08/20 03:58:52;;;;;;;;;4.00;4.00;;;;;16.76;67.80;101599.66;6250581;22;45730;-82
2022/08/20 04:01:21;;;;;;;;;3.00;3.00;;;;;16.57;67.61;101570.69;6267741;22;45373;-82
2022/08/20 04:04:04;;;;;;;;;6.33;5.00;;;;;16.58;67.49;101585.78;6218964;22;45693;-82
2022/08/20 04:06:32;;;;;;;;;7.00;5.00;;;;;16.60;67.60;101583.94;6220389;22;45387;-82
2022/08/20 04:08:59;;;;;;;;;5.67;4.00;;;;;16.54;67.64;101583.16;6219771;22;45210;-83
2022/08/20 04:11:27;;;;;;;;;3.67;2.67;;;;;16.56;67.62;101576.94;6219794;22;47013;-82
2022/08/20 04:14:13;;;;;;;;;5.00;3.67;;;;;16.58;67.87;101583.13;6219281;22;45425;-83
2022/08/20 04:16:42;;;;;;;;;2.67;2.00;;;;;16.59;67.56;101585.72;6246638;22;45367;-82
2022/08/20 04:19:07;;;;;;;;;5.67;4.33;;;;;16.49;67.45;101565.50;6219746;22;45398;-82
2022/08/20 04:21:44;;;;;;;;;4.67;4.00;;;;;16.60;67.67;101573.31;6219567;22;48102;-83
2022/08/20 04:24:12;;;;;;;;;3.67;3.00;;;;;16.54;67.75;101571.63;6219893;22;45191;-83
2022/08/20 04:26:47;;;;;;;;;;;;;;;;;;;;;
2022/08/20 04:29:15;;;;;;;;;5.67;4.00;;;;;16.54;67.26;101580.50;6245961;22;73108;-81
2022/08/20 04:31:53;;;;;;;;;;;;;;;;;;;;;
2022/08/20 04:34:19;;;;;;;;;6.67;5.00;;;;;16.63;67.40;101597.22;6245705;22;73203;-82
2022/08/20 04:36:54;;;;;;;;;6.00;3.00;;;;;16.51;67.45;101574.34;6219136;22;45402;-82
2022/08/20 04:39:20;;;;;;;;;5.00;4.00;;;;;16.49;67.81;101578.78;6245230;22;45197;-83
2022/08/20 04:41:48;;;;;;;;;7.00;4.33;;;;;16.45;67.65;101580.63;6219672;22;45997;-83
2022/08/20 04:44:15;;;;;;;;;3.00;2.00;;;;;16.44;67.44;101578.88;6245083;22;45961;-82
2022/08/20 04:46:42;;;;;;;;;5.67;4.67;;;;;16.43;67.53;101578.88;6244903;22;45268;-82
2022/08/20 04:49:18;;;;;;;;;;;;;;;;;;;;;
2022/08/20 04:51:54;;;;;;;;;;;;;;;;;;;;;
2022/08/20 04:54:20;;;;;;;;;5.00;5.00;;;;;16.47;67.41;101599.22;6247102;22;72908;-82
2022/08/20 04:56:48;;;;;;;;;4.00;3.00;;;;;16.34;67.80;101584.34;6221344;22;45422;-82
2022/08/20 04:59:39;;;;;;;;;4.67;4.67;;;;;16.49;67.66;101619.56;6248300;22;45361;-83
2022/08/20 05:02:04;;;;;;;;;5.33;5.00;;;;;16.48;67.48;101615.13;6239549;22;45960;-82
2022/08/20 05:04:30;;;;;;;;;5.00;4.00;;;;;16.21;67.35;101581.84;6279342;22;45160;-82
2022/08/20 05:06:55;;;;;;;;;2.00;2.00;;;;;16.46;67.70;101622.25;6279595;22;45222;-82
2022/08/20 05:09:21;;;;;;;;;4.33;3.00;;;;;16.34;67.98;101608.25;6279696;22;45460;-82
2022/08/20 05:11:46;;;;;;;;;3.67;3.00;;;;;16.29;67.78;101598.56;6251775;22;45994;-82
2022/08/20 05:14:13;;;;;;;;;5.67;4.33;;;;;16.47;67.99;101625.81;6278051;22;45121;-82
2022/08/20 05:16:39;;;;;;;;;3.33;3.33;;;;;16.28;67.69;101599.47;6277656;22;45378;-83
2022/08/20 05:19:19;;;;;;;;;4.00;4.00;;;;;16.31;67.66;101604.75;6277139;22;45674;-82
2022/08/20 05:21:52;;;;;;;;;5.00;4.33;;;;;16.43;67.43;101613.44;6276770;22;46968;-82
2022/08/20 05:24:25;;;;;;;;;2.33;2.33;;;;;16.32;67.71;101603.81;6277173;22;45870;-83
2022/08/20 05:26:54;;;;;;;;;6.00;4.67;;;;;16.30;67.64;101603.00;6277771;22;45328;-82
2022/08/20 05:29:27;;;;;;;;;3.75;3.00;;;;;16.50;67.80;101623.09;6251439;22;45281;-83
2022/08/20 05:32:04;;;;;;;;;4.33;4.33;;;;;16.39;67.72;101611.75;6277029;22;47045;-83
2022/08/20 05:34:32;;;;;;;;;5.33;4.33;;;;;16.43;67.60;101613.44;6277156;22;45173;-83
2022/08/20 05:37:04;;;;;;;;;4.67;3.67;;;;;16.37;67.55;101606.44;6277778;22;45343;-82
2022/08/20 05:39:30;;;;;;;;;6.00;5.00;;;;;16.40;67.49;101621.47;6276958;22;45409;-82
2022/08/20 05:41:55;;;;;;;;;3.00;3.00;;;;;16.54;67.75;101643.41;6278815;22;45318;-82
2022/08/20 05:44:22;;;;;;;;;4.00;3.33;;;;;16.36;67.39;101617.97;6279246;22;45311;-80
2022/08/20 05:46:48;;;;;;;;;5.67;4.67;;;;;16.42;67.59;101633.81;6277209;22;45345;-82
2022/08/20 05:49:20;;;;;;;;;5.33;3.33;;;;;16.34;67.55;101624.22;6278847;22;45380;-81
2022/08/20 05:51:49;;;;;;;;;3.67;3.00;;;;;16.28;67.63;101612.75;6278908;22;45374;-82
2022/08/20 05:54:29;;;;;;;;;5.00;3.33;;;;;16.49;67.85;101640.84;6276616;22;45279;-84
2022/08/20 05:57:18;;;;;;;;;;;;;;;;;;;;;
2022/08/20 06:10:44;;;;;;;;;5.00;5.00;;;;;16.52;67.37;101645.22;6142778;23;45479;-84
2022/08/20 06:13:16;;;;;;;;;7.33;7.00;;;;;16.66;67.59;101661.84;6149361;23;45214;-82
2022/08/20 06:15:41;;;;;;;;;5.33;5.00;;;;;16.48;67.33;101641.72;6153663;23;47276;-82
2022/08/20 06:18:08;;;;;;;;;4.00;3.67;;;;;16.59;67.30;101662.81;6242742;22;45121;-81
2022/08/20 06:20:57;;;;;;;;;5.67;3.67;;;;;16.57;67.26;101655.78;6279004;22;45206;-82
2022/08/20 06:23:24;;;;;;;;;3.33;3.33;;;;;16.50;67.22;101639.03;6278773;22;45487;-82
2022/08/20 06:26:10;;;;;;;;;;;;;;;;;;;;;
2022/08/20 06:28:54;;;;;;;;;5.33;4.33;;;;;16.56;67.38;101649.59;6277475;22;71209;-81
2022/08/20 06:31:21;;;;;;;;;7.00;5.67;;;;;16.50;67.01;101631.06;6278809;22;45463;-81
2022/08/20 06:33:57;;;;;;;;;4.67;3.00;;;;;16.62;67.47;101656.59;6251001;22;45554;-80
2022/08/20 06:36:23;;;;;;;;;3.00;3.00;;;;;16.64;67.21;101657.44;6278615;22;45506;-81
2022/08/20 06:38:49;;;;;;;;;5.50;4.00;;;;;16.70;66.95;101666.22;6250663;22;45516;-81
2022/08/20 06:41:15;;;;;;;;;3.75;3.75;;;;;16.66;67.38;101643.25;6278509;22;45163;-80
2022/08/20 06:43:40;;;;;;;;;7.67;6.67;;;;;16.80;67.34;101656.34;6278827;22;45412;-79
2022/08/20 06:46:06;;;;;;;;;2.67;2.67;;;;;16.88;67.42;101670.41;6278516;22;46100;-79
2022/08/20 06:52:20;;;;;;;;;5.00;4.00;;;;;16.87;67.35;101658.03;6232924;22;45404;-81
2022/08/20 06:54:48;;;;;;;;;3.00;3.00;;;;;17.00;67.10;101669.38;6249392;22;45694;-81
2022/08/20 07:00:54;;;;;;;;;3.00;3.00;;;;;16.96;66.65;101646.38;6208513;22;45448;-81
2022/08/20 07:03:41;;;;;;;;;;;;;;;;;;;;;
2022/08/20 07:06:33;;;;;;;;;7.00;6.00;;;;;17.18;66.97;101679.69;6276264;22;73213;-81
2022/08/20 07:11:52;;;;;;;;;5.00;5.00;;;;;17.18;67.01;101666.41;6277472;22;45316;-90
2022/08/20 07:14:21;;;;;;;;;4.33;4.33;;;;;17.35;66.76;101679.44;6278891;22;45229;-87
2022/08/20 07:16:46;;;;;;;;;3.00;3.00;;;;;17.38;67.17;101667.88;6247909;22;45276;-87
2022/08/20 07:19:13;;;;;;;;;7.00;5.00;;;;;17.36;66.54;101659.03;6278707;22;45427;-85
2022/08/20 07:21:38;;;;;;;;;5.67;4.00;;;;;17.40;66.70;101660.72;6250638;22;45811;-84
2022/08/20 07:24:04;;;;;;;;;7.67;7.00;;;;;17.39;66.77;101646.53;6277684;22;45143;-84
2022/08/20 07:26:29;;;;;;;;;5.33;5.33;;;;;17.60;66.49;101681.69;6275987;22;45495;-84
2022/08/20 07:28:55;;;;;;;;;5.67;5.00;;;;;17.67;66.27;101685.09;6249915;22;48142;-84
2022/08/20 07:34:04;;;;;;;;;7.00;5.67;;;;;17.64;66.28;101662.06;6279003;22;45231;-84
2022/08/20 07:36:30;;;;;;;;;8.67;5.00;;;;;17.80;66.62;101689.31;6277420;22;45577;-86
2022/08/20 07:38:56;;;;;;;;;3.00;3.00;;;;;17.76;66.27;101664.50;6276130;22;48117;-86
2022/08/20 07:41:21;;;;;;;;;5.00;4.33;;;;;17.88;66.47;101683.84;6250329;22;45660;-85
2022/08/20 07:43:47;;;;;;;;;4.67;3.67;;;;;17.92;66.49;101681.13;6275980;22;45371;-87
2022/08/20 07:46:14;;;;;;;;;4.33;3.00;;;;;18.02;66.20;101688.03;6251443;22;45268;-90
2022/08/20 07:48:45;;;;;;;;;5.67;5.00;;;;;18.10;66.21;101687.00;6251529;22;46283;-93
2022/08/20 07:51:12;;;;;;;;;6.00;3.00;;;;;18.07;66.13;101675.50;6251584;22;45185;-92
2022/08/20 07:53:39;;;;;;;;;6.00;4.67;;;;;18.23;66.09;101696.47;6279020;22;45266;-92
2022/08/20 07:56:09;;;;;;;;;5.00;3.00;;;;;18.28;66.16;101692.84;6253005;22;45275;-90
2022/08/20 07:58:37;;;;;;;;;3.67;3.67;;;;;18.23;66.34;101680.50;6251697;22;48188;-90
2022/08/20 08:01:04;;;;;;;;;6.67;6.00;;;;;18.39;66.06;101695.28;6252129;22;45347;-90
2022/08/20 08:03:31;;;;;;;;;5.00;4.00;;;;;18.34;65.84;101677.63;6256620;22;45235;-91
2022/08/20 08:05:56;;;;;;;;;4.00;4.00;;;;;18.57;65.93;101703.78;6255594;22;45197;-89
2022/08/20 08:08:25;;;;;;;;;5.00;5.00;;;;;18.62;65.47;101696.56;6252834;22;48456;-89
2022/08/20 08:10:56;;;;;;;;;8.00;5.00;;;;;18.64;65.51;101692.97;6251932;22;45497;-90
2022/08/20 08:13:25;;;;;;;;;5.33;5.00;;;;;18.82;65.55;101702.38;6250960;22;45206;-91
2022/08/20 08:15:52;;;;;;;;;2.00;2.00;;;;;18.89;65.26;101703.09;6250633;22;45530;-88
2022/08/20 08:18:23;;;;;;;;;5.33;4.67;;;;;18.96;64.93;101696.72;6276460;22;47180;-88
2022/08/20 08:20:52;;;;;;;;;6.00;6.00;;;;;19.11;64.85;101700.81;6275992;22;46048;-85
2022/08/20 08:23:19;;;;;;;;;5.67;3.33;;;;;19.21;64.99;101701.47;6250388;22;45396;-87
2022/08/20 08:25:44;;;;;;;;;5.00;4.00;;;;;19.23;64.61;101692.50;6250980;22;45914;-84
2022/08/20 08:28:11;;;;;;;;;3.00;2.67;;;;;19.36;64.09;101693.97;6250843;22;47065;-84
2022/08/20 08:30:39;;;;;;;;;4.00;3.00;;;;;19.45;63.84;101698.19;6251130;22;45806;-91
2022/08/20 08:35:48;;;;;;;;;6.33;4.33;;;;;19.58;64.02;101704.09;6279390;22;45219;-88
2022/08/20 08:38:14;;;;;;;;;3.33;3.33;;;;;19.64;63.45;101705.75;6251255;22;46195;-87
2022/08/20 08:40:40;;;;;;;;;4.00;3.67;;;;;19.73;63.21;101706.41;6251360;22;45174;-89
2022/08/20 08:43:06;;;;;;;;;4.00;3.00;;;;;19.77;63.48;101694.72;6251816;22;45529;-89
2022/08/20 08:45:44;;;;;;;;;3.67;2.67;;;;;19.93;63.21;101702.31;6277244;22;45500;-88
2022/08/20 08:48:16;;;;;;;;;4.00;3.00;;;;;20.04;63.08;101703.78;6251036;22;47752;-87
2022/08/20 08:50:47;;;;;;;;;5.00;3.67;;;;;20.10;62.84;101691.16;6278904;22;45393;-86
2022/08/20 08:53:25;;;;;;;;;6.00;4.00;;;;;20.15;62.55;101690.09;6250898;22;45213;-83
2022/08/20 08:55:50;;;;;;;;;4.00;4.00;;;;;20.28;62.59;101693.31;6279169;22;45101;-82
2022/08/20 08:58:15;;;;;;;;;3.00;3.00;;;;;20.38;62.45;101688.56;6250927;22;47054;-82
2022/08/20 09:00:41;;;;;;;;;3.00;3.00;;;;;20.41;61.77;101670.63;6278342;22;45317;-82
2022/08/20 09:03:10;;;;;;;;;4.33;4.00;;;;;20.58;61.29;101688.00;6279026;22;45270;-82
2022/08/20 09:05:43;;;;;;;;;4.00;4.00;;;;;20.69;60.88;101689.44;6278530;22;45405;-82
2022/08/20 09:08:15;;;;;;;;;3.33;1.67;;;;;20.77;60.70;101691.88;6279018;22;45358;-82
2022/08/20 09:10:41;;;;;;;;;3.67;3.67;;;;;20.83;60.54;101690.81;6277106;22;45852;-82
2022/08/20 09:13:07;;;;;;;;;5.67;3.00;;;;;20.86;59.69;101691.59;6278820;22;45404;-82
2022/08/20 09:15:33;;;;;;;;;3.67;2.67;;;;;20.95;59.29;101693.09;6251126;22;45456;-81
2022/08/20 09:17:59;;;;;;;;;2.33;1.67;;;;;20.96;59.22;101684.16;6250401;22;47063;-82
2022/08/20 09:20:24;;;;;;;;;2.00;2.00;;;;;21.03;59.00;101680.34;6279091;22;45389;-86
2022/08/20 09:22:50;;;;;;;;;4.33;2.33;;;;;21.07;58.68;101676.66;6251500;22;45341;-90
2022/08/20 09:25:16;;;;;;;;;4.00;4.00;;;;;21.21;58.46;101680.69;6277640;22;45370;-88
2022/08/20 09:27:42;;;;;;;;;5.00;2.33;;;;;21.28;58.09;101679.56;6277060;22;47029;-89
2022/08/20 09:30:08;;;;;;;;;3.67;3.00;;;;;21.34;57.57;101676.66;6250876;22;45674;-83
2022/08/20 09:32:34;;;;;;;;;3.00;3.00;;;;;21.43;57.50;101686.22;6250843;22;45215;-83
2022/08/20 09:35:00;;;;;;;;;5.33;5.00;;;;;21.44;57.25;101677.22;6276290;22;45761;-86
2022/08/20 09:37:28;;;;;;;;;4.33;1.67;;;;;21.49;57.11;101672.59;6250974;22;47559;-85
2022/08/20 09:39:54;;;;;;;;;3.33;2.33;;;;;21.56;55.70;101674.16;6278726;22;45370;-84
2022/08/20 09:42:22;;;;;;;;;4.00;3.00;;;;;21.50;55.37;101667.19;6250870;22;45317;-84
2022/08/20 09:44:48;;;;;;;;;2.00;1.67;;;;;21.68;54.76;101692.50;6278349;22;45418;-85
2022/08/20 09:47:16;;;;;;;;;4.33;2.00;;;;;21.71;54.77;101678.13;6278025;22;46289;-85
2022/08/20 09:49:42;;;;;;;;;1.67;1.67;;;;;21.79;54.13;101670.66;6250594;22;45259;-83
2022/08/20 09:52:10;;;;;;;;;1.33;1.33;;;;;21.90;53.68;101673.84;6278249;22;45311;-85
2022/08/20 09:54:38;;;;;;;;;4.33;4.00;;;;;22.09;53.09;101681.22;6250277;22;45486;-86
2022/08/20 09:57:06;;;;;;;;;1.67;1.67;;;;;22.31;52.78;101676.81;6276131;22;47770;-85
2022/08/20 09:59:32;;;;;;;;;4.00;3.00;;;;;22.46;51.88;101670.00;6276312;22;45421;-83
2022/08/20 10:01:58;;;;;;;;;2.33;1.33;;;;;22.65;50.58;101680.91;6250673;22;45375;-83
2022/08/20 10:04:23;;;;;;;;;1.33;1.00;;;;;22.70;49.78;101670.00;6276748;22;45736;-83
2022/08/20 10:06:49;;;;;;;;;2.67;2.67;;;;;22.72;50.27;101668.09;6278811;22;45904;-81
2022/08/20 10:09:15;;;;;;;;;3.33;3.00;;;;;22.89;50.21;101677.22;6277768;22;45405;-82
2022/08/20 10:11:40;;;;;;;;;2.00;2.00;;;;;22.96;50.17;101664.47;6249949;22;45296;-82
2022/08/20 10:14:07;;;;;;;;;3.67;2.00;;;;;23.13;49.71;101655.72;6278009;22;45266;-82
2022/08/20 10:16:33;;;;;;;;;3.67;3.67;;;;;23.24;48.98;101658.81;6275603;22;47186;-82
2022/08/20 10:18:58;;;;;;;;;2.00;1.00;;;;;23.31;48.29;101656.78;6249481;22;45615;-81
2022/08/20 10:21:24;;;;;;;;;3.00;2.33;;;;;23.31;48.57;101663.00;6278633;22;45383;-82
2022/08/20 10:23:49;;;;;;;;;5.33;4.00;;;;;23.12;48.77;101645.88;6276181;22;45449;-82
2022/08/20 10:26:15;;;;;;;;;3.00;3.00;;;;;23.09;48.75;101651.41;6278100;22;45172;-82
2022/08/20 10:28:41;;;;;;;;;4.67;3.00;;;;;23.05;48.76;101645.28;6277925;22;45204;-82
2022/08/20 10:31:11;;;;;;;;;5.00;4.00;;;;;23.10;48.12;101642.41;6277949;22;45285;-82
2022/08/20 10:33:37;;;;;;;;;5.00;5.00;;;;;23.23;48.25;101642.75;6250527;22;45256;-82
2022/08/20 10:36:16;;;;;;;;;2.67;2.67;;;;;23.30;48.36;101649.63;6277996;22;45427;-82
2022/08/20 10:38:43;;;;;;;;;4.67;1.67;;;;;23.38;48.15;101642.09;6250086;22;45387;-83
2022/08/20 10:41:09;;;;;;;;;5.67;4.33;;;;;23.38;47.58;101641.25;6275676;22;45384;-81
2022/08/20 10:43:35;;;;;;;;;3.33;3.00;;;;;23.47;46.66;101646.19;6277915;22;45526;-83
2022/08/20 10:46:01;;;;;;;;;3.67;3.67;;;;;23.53;46.31;101644.13;6249536;22;48172;-83
2022/08/20 10:48:26;;;;;;;;;4.67;2.33;;;;;23.64;45.86;101634.75;6277609;22;45159;-82
2022/08/20 10:50:52;;;;;;;;;2.33;2.00;;;;;23.78;45.88;101640.41;6278599;22;45170;-82
2022/08/20 10:53:17;;;;;;;;;2.00;1.00;;;;;24.00;45.72;101643.00;6278818;22;45189;-83
2022/08/20 10:55:43;;;;;;;;;3.00;2.00;;;;;24.19;45.13;101635.84;6277619;22;45957;-83
2022/08/20 10:58:11;;;;;;;;;3.00;1.33;;;;;24.30;44.14;101629.06;6277278;22;45222;-83
2022/08/20 11:00:37;;;;;;;;;3.00;3.00;;;;;24.41;43.67;101643.78;6278042;22;45280;-82
2022/08/20 11:03:02;;;;;;;;;2.00;2.00;;;;;24.51;43.97;101637.97;6278052;22;45404;-82
2022/08/20 11:05:28;;;;;;;;;2.00;1.67;;;;;24.53;43.61;101641.47;6250369;22;48522;-83
2022/08/20 11:07:54;;;;;;;;;2.67;2.67;;;;;24.61;43.97;101640.16;6277996;22;45349;-83
2022/08/20 11:10:20;;;;;;;;;4.67;3.00;;;;;24.63;43.66;101635.56;6275022;22;45431;-82
2022/08/20 11:12:46;;;;;;;;;2.67;2.00;;;;;24.71;43.84;101640.59;6250499;22;45485;-82
2022/08/20 11:15:13;;;;;;;;;3.67;0.33;;;;;24.83;43.99;101640.00;6276523;22;46811;-82
2022/08/20 11:17:40;;;;;;;;;3.00;3.00;;;;;24.85;43.97;101626.44;6250803;22;45992;-83
2022/08/20 11:20:07;;;;;;;;;1.67;1.67;;;;;25.07;42.84;101647.78;6278329;22;45471;-82
2022/08/20 11:22:33;;;;;;;;;3.00;3.00;;;;;25.16;42.60;101639.28;6250658;22;45451;-83
2022/08/20 11:24:59;;;;;;;;;3.00;2.00;;;;;25.32;42.31;101641.22;6250164;22;47540;-83
2022/08/20 11:27:37;;;;;;;;;2.67;2.67;;;;;25.46;41.94;101631.44;6277932;22;45342;-82
2022/08/20 11:30:07;;;;;;;;;2.33;2.00;;;;;25.57;41.62;101633.56;6278358;22;45152;-84
2022/08/20 11:32:33;;;;;;;;;2.00;2.00;;;;;25.62;41.73;101636.03;6250009;22;45821;-84
2022/08/20 11:34:58;;;;;;;;;3.00;3.00;;;;;25.66;41.46;101641.19;6250271;22;46250;-83
2022/08/20 11:37:25;;;;;;;;;4.67;3.67;;;;;25.73;41.17;101649.81;6278142;22;45377;-82
2022/08/20 11:39:51;;;;;;;;;3.33;2.33;;;;;25.72;41.10;101643.56;6276257;22;45243;-86
2022/08/20 11:42:16;;;;;;;;;4.00;4.00;;;;;25.73;40.68;101631.81;6277496;22;45357;-85
2022/08/20 11:44:42;;;;;;;;;5.00;2.00;;;;;25.78;40.71;101630.72;6250207;22;47253;-84
2022/08/20 11:47:19;;;;;;;;;2.00;2.00;;;;;25.88;40.61;101638.25;6276816;22;45168;-87
2022/08/20 11:49:44;;;;;;;;;2.67;2.67;;;;;25.96;40.01;101636.00;6279095;22;45400;-86
2022/08/20 11:52:09;;;;;;;;;3.67;3.00;;;;;26.10;40.05;101631.69;6250793;22;45411;-83
2022/08/20 11:54:39;;;;;;;;;5.00;5.00;;;;;26.28;40.01;101627.13;6278380;22;46101;-82
2022/08/20 11:57:04;;;;;;;;;3.00;3.00;;;;;26.45;40.06;101620.75;6250090;22;45374;-81
2022/08/20 11:59:30;;;;;;;;;2.67;1.33;;;;;26.69;39.82;101614.00;6278039;22;45345;-84
2022/08/20 12:01:56;;;;;;;;;4.00;3.00;;;;;26.98;39.01;101601.50;6277812;22;45308;-81
2022/08/20 12:04:22;;;;;;;;;3.67;3.67;;;;;27.33;39.17;101608.50;6250482;22;47053;-82
2022/08/20 12:06:48;;;;;;;;;5.00;4.00;;;;;27.60;38.45;101612.22;6250034;22;45452;-81
2022/08/20 12:09:13;;;;;;;;;3.00;3.00;;;;;27.75;37.30;101609.50;6279008;22;45180;-82
2022/08/20 12:11:40;;;;;;;;;6.67;4.67;;;;;27.73;38.05;101620.44;6277956;22;45367;-84
2022/08/20 12:14:05;;;;;;;;;3.00;2.00;;;;;27.74;37.30;101615.91;6249779;22;48113;-81
2022/08/20 12:16:31;;;;;;;;;3.00;3.00;;;;;27.80;36.75;101618.22;6277761;22;45190;-83
2022/08/20 12:18:56;;;;;;;;;3.00;3.00;;;;;28.00;37.24;101619.72;6277990;22;45330;-82
2022/08/20 12:21:22;;;;;;;;;2.00;2.00;;;;;28.25;36.83;101621.72;6278215;22;45255;-80
2022/08/20 12:23:47;;;;;;;;;3.67;3.67;;;;;28.34;36.29;101610.31;6255012;22;46189;-82
2022/08/20 12:26:13;;;;;;;;;5.00;3.67;;;;;28.41;36.24;101616.19;6250190;22;45816;-83
2022/08/20 12:28:38;;;;;;;;;4.00;4.00;;;;;28.45;36.10;101621.34;6259834;22;45207;-83
2022/08/20 12:31:04;;;;;;;;;4.00;3.33;;;;;28.52;35.71;101621.81;6250480;22;45649;-83
2022/08/20 12:33:29;;;;;;;;;2.67;2.67;;;;;28.65;35.59;101611.03;6251511;22;47323;-85
2022/08/20 12:35:56;;;;;;;;;3.00;3.00;;;;;28.79;35.43;101603.75;6250731;22;45248;-79
2022/08/20 12:38:21;;;;;;;;;3.33;2.33;;;;;28.89;35.55;101608.53;6278083;22;45204;-78